Dereham, United Kingdom
Current Conditions -  °F | °C
As of 5:50 PM on Thursday 18 Dec 2014 (Local Time) from EGSH Reporting Station
Broken Clouds Broken Clouds  
Wind Chill: 14°   Ceiling: 1900
Heat Index: 14°   Visibility: 6mi
Dew Point: 11°   Wind: 22mph
Humidity: 82%   Direction: 240°WSW
Pressure: 29.68"   Gusts: 33mph
Location:  52.64°N, 0.97°E
Report Text: EGSH 181750Z 24019G29KT 200V270 9999 BKN019 14/11 Q1005 NOSIG
Loading
Personal Weather Stations






























Interactive Weather Map New forecast layout! Learn more

10-Day Weather Forecast

Advertisements
Track Severe Weather on mobile